CheckWX is a tool to help pilots better visualize weather data.  It is not intended as a substitute for an official pre-flight weather briefing.

06:15:35 UTC

EGPH METAR
Edinburgh Airport
Edinburgh, United Kingdom
Current

26 mins ago

EGPH 200550Z 25006KT CAVOK 12/11 Q1014
Observed
Aug-20 @ 05:50 UTC
Wind
  • 250° at 6 KTS
Visibility
10,000+ meters
Flight Rules
VFR
Cloud Levels
  • Clear skies
Temperature
12°C / 54°F
Dewpoint
11°C / 52°F
Humidity
94%
Altimeter
29.94" Hg
Pressure
1013.92 hPa
Previous

56 mins ago

EGPH 200520Z 24006KT CAVOK 12/11 Q1014
Observed
Aug-20 @ 05:20 UTC
Wind
  • 240° at 6 KTS
Visibility
10,000+ meters
Flight Rules
VFR
Cloud Levels
  • Clear skies
Temperature
12°C / 54°F
Dewpoint
11°C / 52°F
Humidity
94%
Altimeter
29.94" Hg
Pressure
1013.92 hPa
Previous

1 hour ago

EGPH 200450Z 25006KT CAVOK 12/11 Q1014
Observed
Aug-20 @ 04:50 UTC
Wind
  • 250° at 6 KTS
Visibility
10,000+ meters
Flight Rules
VFR
Cloud Levels
  • Clear skies
Temperature
12°C / 54°F
Dewpoint
11°C / 52°F
Humidity
94%
Altimeter
29.94" Hg
Pressure
1013.92 hPa